createdAt,value
2018-01-03T00:00:19.509Z,50.20
2018-01-03T00:01:20.569Z,50.20
2018-01-03T00:02:22.120Z,50.20
2018-01-03T00:03:23.307Z,50.20
2018-01-03T00:04:24.839Z,50.20
2018-01-03T00:05:26.421Z,50.20
2018-01-03T00:06:27.509Z,50.20
2018-01-03T00:07:29.099Z,50.20
2018-01-03T00:08:30.638Z,50.20
2018-01-03T00:09:32.227Z,50.20
2018-01-03T00:10:33.781Z,50.20
2018-01-03T00:11:35.341Z,50.20
2018-01-03T00:12:36.892Z,50.20
2018-01-03T00:13:38.415Z,50.20
2018-01-03T00:14:39.959Z,50.20
2018-01-03T00:15:41.514Z,50.20
2018-01-03T00:16:43.060Z,50.20
2018-01-03T00:17:44.583Z,50.20
2018-01-03T00:18:46.167Z,50.20
2018-01-03T00:19:47.713Z,50.20
2018-01-03T00:20:49.218Z,50.20
2018-01-03T00:21:50.780Z,50.20
2018-01-03T00:22:52.401Z,50.20
2018-01-03T00:23:54.009Z,50.20
2018-01-03T00:24:55.607Z,50.20
2018-01-03T00:25:57.146Z,50.20
2018-01-03T00:26:58.709Z,50.20
2018-01-03T00:28:00.250Z,50.20
2018-01-03T00:29:01.800Z,50.20
2018-01-03T00:30:03.331Z,50.20
2018-01-03T00:31:04.856Z,50.20
2018-01-03T00:32:06.371Z,50.20
2018-01-03T00:33:07.900Z,50.20
2018-01-03T00:34:09.537Z,50.20
2018-01-03T00:35:11.068Z,50.20
2018-01-03T00:36:12.135Z,50.20
2018-01-03T00:37:13.152Z,50.20
2018-01-03T00:38:14.721Z,50.20
2018-01-03T00:39:16.240Z,50.20
2018-01-03T00:40:17.786Z,50.20
2018-01-03T00:41:18.810Z,50.20
2018-01-03T00:42:20.364Z,50.20
2018-01-03T00:43:21.900Z,50.20
2018-01-03T00:44:23.444Z,50.20
2018-01-03T00:45:24.980Z,50.20
2018-01-03T00:46:26.031Z,50.20
2018-01-03T00:47:27.579Z,50.20
2018-01-03T00:48:29.123Z,50.20
2018-01-03T00:49:30.740Z,50.20
2018-01-03T00:50:32.328Z,50.20
2018-01-03T00:51:33.902Z,50.20
2018-01-03T00:52:35.495Z,50.20
2018-01-03T00:53:37.087Z,50.20
2018-01-03T00:54:38.650Z,50.20
2018-01-03T00:55:40.234Z,50.20
2018-01-03T00:56:41.779Z,50.20
2018-01-03T00:57:43.811Z,50.20
2018-01-03T00:58:45.369Z,50.20
2018-01-03T00:59:46.910Z,50.20
2018-01-03T01:00:48.488Z,50.20
2018-01-03T01:01:50.060Z,50.20
2018-01-03T01:02:51.104Z,50.20
2018-01-03T01:03:52.625Z,50.20
2018-01-03T01:04:54.218Z,50.20
2018-01-03T01:05:55.295Z,50.20
2018-01-03T01:06:56.862Z,50.20
2018-01-03T01:07:58.403Z,50.20
2018-01-03T01:08:59.974Z,50.20
2018-01-03T01:10:01.514Z,50.20
2018-01-03T01:11:03.094Z,50.20
2018-01-03T01:12:04.641Z,50.20
2018-01-03T01:13:06.179Z,50.20
2018-01-03T01:14:07.786Z,50.20
2018-01-03T01:15:09.316Z,50.20
2018-01-03T01:16:10.894Z,50.20
2018-01-03T01:17:12.421Z,50.20
2018-01-03T01:18:13.950Z,50.20
2018-01-03T01:19:15.480Z,50.20
2018-01-03T01:20:17.054Z,50.20
2018-01-03T01:21:18.577Z,50.20
2018-01-03T01:22:20.091Z,50.20
2018-01-03T01:23:21.634Z,50.20
2018-01-03T01:24:23.233Z,50.20
2018-01-03T01:25:24.702Z,50.20
2018-01-03T01:26:25.762Z,50.20
2018-01-03T01:27:27.262Z,50.20
2018-01-03T01:28:28.807Z,50.20
2018-01-03T01:29:30.353Z,50.20
2018-01-03T01:30:31.877Z,50.20
2018-01-03T01:31:33.440Z,50.20
2018-01-03T01:32:34.487Z,50.20
2018-01-03T01:33:36.031Z,50.20
2018-01-03T01:34:37.584Z,50.20
2018-01-03T01:35:39.161Z,50.20
2018-01-03T01:36:40.701Z,50.20
2018-01-03T01:37:42.251Z,50.20
2018-01-03T01:38:43.809Z,50.20
2018-01-03T01:39:45.389Z,50.20
2018-01-03T01:40:46.928Z,50.20
2018-01-03T01:41:48.462Z,50.20
2018-01-03T01:42:50.046Z,50.20
2018-01-03T01:43:51.603Z,50.20
2018-01-03T01:44:53.113Z,50.20
2018-01-03T01:45:54.126Z,50.20
2018-01-03T01:46:55.676Z,50.20
2018-01-03T01:47:57.337Z,50.20
2018-01-03T01:48:58.877Z,50.20
2018-01-03T01:50:00.412Z,50.20
2018-01-03T01:51:01.980Z,50.20
2018-01-03T01:52:03.037Z,50.20
2018-01-03T01:53:04.587Z,50.20
2018-01-03T01:54:06.138Z,50.20
2018-01-03T01:55:07.737Z,50.20
2018-01-03T01:56:08.817Z,50.20
2018-01-03T01:57:10.370Z,50.20
2018-01-03T01:58:11.891Z,50.20
2018-01-03T01:59:13.421Z,50.20
2018-01-03T02:00:14.962Z,50.20
2018-01-03T02:01:16.509Z,50.20
2018-01-03T02:02:18.071Z,50.20
2018-01-03T02:03:19.595Z,50.20
2018-01-03T02:04:21.122Z,50.20
2018-01-03T02:05:22.161Z,50.20
2018-01-03T02:06:23.745Z,50.20
2018-01-03T02:07:25.307Z,50.20
2018-01-03T02:08:26.406Z,50.20
2018-01-03T02:09:27.970Z,50.20
2018-01-03T02:10:30.121Z,50.20
2018-01-03T02:11:31.648Z,50.20
2018-01-03T02:12:33.229Z,50.20
2018-01-03T02:13:34.771Z,50.20
2018-01-03T02:14:36.313Z,50.20
2018-01-03T02:15:37.865Z,50.20
2018-01-03T02:16:39.409Z,50.20
2018-01-03T02:17:40.952Z,50.20
2018-01-03T02:18:42.493Z,50.20
2018-01-03T02:19:44.052Z,50.20
2018-01-03T02:20:45.608Z,50.20
2018-01-03T02:21:47.187Z,50.20
2018-01-03T02:22:48.731Z,50.20
2018-01-03T02:23:50.261Z,50.20
2018-01-03T02:24:51.812Z,50.20
2018-01-03T02:25:52.901Z,50.20
2018-01-03T02:26:54.452Z,50.20
2018-01-03T02:27:56.014Z,50.20
2018-01-03T02:28:57.561Z,50.20
2018-01-03T02:29:59.086Z,50.20
2018-01-03T02:31:00.628Z,50.20
2018-01-03T02:32:02.168Z,50.20
2018-01-03T02:33:03.815Z,50.20
2018-01-03T02:34:05.352Z,50.20
2018-01-03T02:35:06.903Z,50.20
2018-01-03T02:36:07.936Z,50.20
2018-01-03T02:37:09.589Z,50.20
2018-01-03T02:38:11.150Z,50.20
2018-01-03T02:39:12.678Z,50.20
2018-01-03T02:40:14.225Z,50.20
2018-01-03T02:41:15.812Z,50.20
2018-01-03T02:42:16.860Z,50.20
2018-01-03T02:43:18.437Z,50.20
2018-01-03T02:44:19.999Z,50.20
2018-01-03T02:45:21.543Z,50.20
2018-01-03T02:46:22.606Z,50.20
2018-01-03T02:47:24.127Z,50.20
2018-01-03T02:48:25.670Z,50.20
2018-01-03T02:49:27.222Z,50.20
2018-01-03T02:50:28.753Z,50.20
2018-01-03T02:51:30.259Z,50.20
2018-01-03T02:52:31.873Z,50.20
2018-01-03T02:53:33.445Z,50.20
2018-01-03T02:54:34.996Z,50.20
2018-01-03T02:55:36.030Z,50.20
2018-01-03T02:56:37.073Z,50.20
2018-01-03T02:57:38.635Z,50.20
2018-01-03T02:58:40.215Z,50.20
2018-01-03T02:59:41.739Z,50.20
2018-01-03T03:00:42.752Z,50.20
2018-01-03T03:01:44.299Z,50.20
2018-01-03T03:02:45.839Z,50.20
2018-01-03T03:03:47.390Z,50.20
2018-01-03T03:04:48.927Z,50.20
2018-01-03T03:05:49.950Z,50.20
2018-01-03T03:06:51.456Z,50.20
2018-01-03T03:07:53.548Z,50.20
2018-01-03T03:08:55.084Z,50.20
2018-01-03T03:09:56.605Z,50.20
2018-01-03T03:10:58.213Z,50.20
2018-01-03T03:11:59.812Z,50.20
2018-01-03T03:13:01.371Z,50.20
2018-01-03T03:14:02.963Z,50.20
2018-01-03T03:15:04.506Z,50.20
2018-01-03T03:16:05.563Z,50.20
2018-01-03T03:17:07.071Z,50.20
2018-01-03T03:18:08.612Z,50.20
2018-01-03T03:19:10.161Z,50.20
2018-01-03T03:20:11.774Z,50.20
2018-01-03T03:21:14.311Z,50.20
2018-01-03T03:22:15.386Z,50.20
2018-01-03T03:23:17.501Z,50.20
2018-01-03T03:24:19.122Z,50.20
2018-01-03T03:25:20.653Z,50.20
2018-01-03T03:26:22.194Z,50.20
2018-01-03T03:27:23.769Z,50.20
2018-01-03T03:28:24.878Z,50.20
2018-01-03T03:29:26.457Z,50.20
2018-01-03T03:30:28.032Z,50.20
2018-01-03T03:31:29.572Z,50.20
2018-01-03T03:32:30.604Z,50.20
2018-01-03T03:33:32.138Z,50.20
2018-01-03T03:34:33.701Z,50.20
2018-01-03T03:35:35.249Z,50.20
2018-01-03T03:36:36.275Z,50.20
2018-01-03T03:37:37.813Z,50.20
2018-01-03T03:38:42.445Z,50.20
2018-01-03T03:39:43.569Z,50.20
2018-01-03T03:40:44.644Z,50.20
2018-01-03T03:41:46.221Z,50.20
2018-01-03T03:42:47.333Z,50.20
2018-01-03T03:43:48.942Z,50.20
2018-01-03T03:44:52.050Z,50.20
2018-01-03T03:45:53.170Z,50.20
2018-01-03T03:47:00.281Z,50.20
2018-01-03T03:48:01.438Z,50.20
2018-01-03T03:50:21.866Z,50.20
2018-01-03T03:52:43.755Z,50.20
2018-01-03T03:53:44.769Z,50.20
2018-01-03T03:54:45.823Z,50.20
2018-01-03T03:55:46.916Z,50.20
2018-01-03T03:56:48.045Z,50.20
2018-01-03T03:57:49.109Z,50.20
2018-01-03T03:58:50.214Z,50.20
2018-01-03T03:59:51.267Z,50.20
2018-01-03T04:00:52.325Z,50.20
2018-01-03T04:01:53.369Z,50.20
2018-01-03T04:02:54.399Z,50.20
2018-01-03T04:03:55.444Z,50.20
2018-01-03T04:04:56.497Z,50.20
2018-01-03T04:05:57.653Z,50.20
2018-01-03T04:06:58.679Z,50.20
2018-01-03T04:07:59.736Z,50.20
2018-01-03T04:09:00.813Z,50.20
2018-01-03T04:10:01.903Z,50.20
2018-01-03T04:11:02.965Z,50.20
2018-01-03T04:12:05.995Z,50.20
2018-01-03T04:13:07.606Z,50.20
2018-01-03T04:14:08.686Z,50.20
2018-01-03T04:15:09.767Z,50.20
2018-01-03T16:08:24.017Z,50.20
2018-01-03T16:08:44.374Z,50.20
2018-01-03T16:10:16.800Z,50.20
2018-01-03T16:11:30.876Z,47.74
2018-01-03T16:12:32.978Z,47.65
2018-01-03T16:13:36.537Z,46.70
2018-01-03T16:14:38.039Z,46.56
2018-01-03T16:15:40.053Z,46.33
2018-01-03T16:16:43.628Z,46.42
2018-01-03T16:17:47.168Z,46.48
2018-01-03T16:18:30.813Z,46.37
2018-01-03T16:19:32.247Z,46.36
2018-01-03T16:22:57.498Z,46.33
2018-01-03T16:23:59.774Z,49.15
2018-01-03T16:25:01.160Z,45.96
2018-01-03T16:26:02.583Z,46.16
2018-01-03T16:27:06.069Z,46.50
2018-01-03T16:28:07.708Z,45.79
2018-01-03T16:49:14.611Z,45.29
2018-01-03T16:50:17.334Z,45.29
2018-01-03T16:51:20.216Z,45.27
2018-01-03T16:58:59.442Z,45.16
2018-01-03T17:00:01.163Z,45.25
2018-01-03T17:01:02.989Z,45.33
2018-01-03T17:02:04.846Z,45.17
2018-01-03T17:03:06.308Z,45.15
2018-01-03T17:04:03.476Z,45.25
2018-01-03T17:05:02.632Z,45.51
2018-01-03T17:06:01.808Z,45.43
2018-01-03T17:07:00.968Z,46.10
2018-01-03T17:08:00.141Z,46.11
2018-01-03T17:08:59.299Z,46.73
2018-01-03T17:09:58.471Z,47.13
2018-01-03T17:10:57.669Z,47.36
2018-01-03T17:11:56.848Z,47.34
2018-01-03T17:12:56.026Z,47.32
2018-01-03T17:13:55.213Z,47.18
2018-01-03T17:17:23.620Z,47.77
2018-01-03T17:18:22.771Z,48.01
2018-01-03T17:19:21.931Z,47.74
2018-01-03T17:20:21.101Z,47.95
2018-01-03T17:21:20.261Z,47.91
2018-01-03T17:22:19.419Z,47.63
2018-01-03T17:23:18.605Z,47.36
2018-01-03T17:24:17.756Z,47.36
2018-01-03T17:25:16.922Z,47.39
2018-01-03T17:26:16.098Z,47.17
2018-01-03T17:27:15.257Z,47.17
2018-01-03T17:28:14.418Z,47.12
2018-01-03T17:29:13.604Z,46.98
2018-01-03T17:30:12.762Z,47.06
2018-01-03T17:31:11.916Z,46.90
2018-01-03T17:32:11.067Z,46.87
2018-01-03T17:33:10.230Z,47.56
2018-01-03T17:34:09.386Z,48.81
2018-01-03T17:35:08.567Z,49.48
2018-01-03T17:36:07.733Z,49.84
2018-01-03T17:37:06.887Z,50.06
2018-01-03T17:38:06.054Z,50.29
2018-01-03T17:39:05.216Z,50.54
2018-01-03T17:40:04.383Z,50.63
2018-01-03T17:41:03.559Z,50.73
2018-01-03T17:42:02.721Z,50.85
2018-01-03T17:43:01.913Z,50.82
2018-01-03T17:44:01.071Z,50.86
2018-01-03T17:45:00.231Z,50.89
2018-01-03T17:45:59.409Z,50.66
2018-01-03T17:46:58.588Z,50.76
2018-01-03T17:47:57.751Z,50.97
2018-01-03T17:48:56.908Z,51.48
2018-01-03T17:49:56.067Z,55.88
2018-01-03T17:50:55.227Z,55.41
2018-01-03T17:51:54.386Z,55.26
2018-01-03T17:52:53.561Z,50.13
2018-01-03T17:53:52.719Z,49.41
2018-01-03T17:54:51.880Z,49.25
2018-01-03T17:55:51.049Z,49.35
2018-01-03T17:56:50.212Z,49.40
2018-01-03T17:57:49.371Z,49.14
2018-01-03T17:58:48.562Z,49.55
2018-01-03T17:59:47.721Z,48.97
2018-01-03T18:00:46.881Z,48.91
2018-01-03T18:01:46.036Z,48.90
2018-01-03T18:02:45.195Z,48.92
2018-01-03T18:03:44.386Z,48.97
2018-01-03T18:05:24.757Z,48.94
2018-01-03T18:06:23.912Z,49.07
2018-01-03T18:07:16.778Z,49.09
2018-01-03T18:08:15.935Z,48.99
2018-01-03T18:09:15.126Z,49.09
2018-01-03T18:10:14.291Z,49.06
2018-01-03T18:11:48.353Z,49.03
2018-01-03T18:12:47.592Z,49.09
2018-01-03T18:13:46.862Z,49.03
2018-01-03T18:14:35.553Z,49.10
2018-01-03T18:15:34.821Z,49.01
2018-01-03T18:16:26.573Z,49.08
2018-01-03T18:17:09.901Z,49.09
2018-01-03T18:18:09.130Z,49.08
2018-01-03T18:19:08.360Z,49.10
2018-01-03T18:20:07.608Z,49.12
2018-01-03T18:21:06.840Z,49.07
2018-01-03T18:22:06.071Z,49.03
2018-01-03T18:23:05.318Z,49.03
2018-01-03T18:24:04.587Z,49.00
2018-01-03T18:25:03.834Z,48.90
2018-01-03T18:25:51.965Z,48.98
2018-01-03T18:26:51.206Z,49.05
2018-01-03T18:27:50.430Z,49.14
2018-01-03T18:28:49.705Z,49.30
2018-01-03T18:30:10.772Z,49.41
2018-01-03T18:31:10.114Z,49.60
2018-01-03T18:32:26.981Z,49.52
2018-01-03T18:33:26.357Z,49.66
2018-01-03T18:34:25.794Z,49.75
2018-01-03T18:35:25.161Z,49.68
2018-01-03T18:36:06.840Z,49.59
2018-01-03T18:37:06.226Z,49.60
2018-01-03T18:38:05.588Z,49.54
2018-01-03T18:39:04.959Z,49.52
2018-01-03T18:40:04.351Z,49.50
2018-01-03T18:41:28.491Z,48.87
2018-01-03T18:42:27.861Z,44.41
2018-01-03T18:43:23.308Z,43.32
2018-01-03T18:44:22.661Z,44.37
2018-01-03T18:45:22.066Z,45.85
2018-01-03T18:46:21.439Z,46.46
2018-01-03T18:47:20.791Z,47.89
2018-01-03T18:48:20.135Z,48.63
2018-01-03T18:49:19.518Z,48.87
2018-01-03T18:50:18.878Z,49.56
2018-01-03T18:51:18.231Z,49.01
2018-01-03T18:52:17.585Z,48.78
2018-01-03T18:53:16.926Z,49.06
2018-01-03T18:54:16.278Z,49.09
2018-01-03T18:55:15.715Z,49.10
2018-01-03T18:56:15.024Z,48.97
2018-01-03T18:57:14.392Z,49.21
2018-01-03T18:58:13.737Z,49.17
2018-01-03T18:59:13.118Z,49.15
2018-01-03T19:00:12.478Z,49.16
2018-01-03T19:01:11.842Z,49.17
2018-01-03T19:02:11.204Z,49.29
2018-01-03T19:03:10.582Z,49.13
2018-01-03T19:04:09.935Z,47.14
2018-01-03T19:05:09.285Z,46.51
2018-01-03T19:06:08.632Z,46.47
2018-01-03T19:07:07.985Z,46.00
2018-01-03T19:08:07.340Z,45.67
2018-01-03T19:09:06.711Z,46.09
2018-01-03T19:10:06.066Z,45.32
2018-01-03T19:11:05.421Z,46.40
2018-01-03T19:12:04.773Z,45.95
2018-01-03T19:13:04.129Z,45.73
2018-01-03T19:14:03.474Z,46.46
2018-01-03T19:15:02.849Z,47.27
2018-01-03T19:16:02.201Z,47.83
2018-01-03T19:17:01.576Z,48.33
2018-01-03T19:18:00.926Z,48.44
2018-01-03T19:19:00.269Z,48.50
2018-01-03T19:19:59.619Z,48.43
2018-01-03T19:20:59.000Z,48.46
2018-01-03T19:21:58.355Z,48.52
2018-01-03T19:22:57.700Z,48.60
2018-01-03T19:23:57.050Z,48.60
2018-01-03T19:24:56.399Z,48.61
2018-01-03T19:25:55.750Z,48.63
2018-01-03T19:26:55.126Z,48.67
2018-01-03T19:27:54.503Z,48.73
2018-01-03T19:28:53.864Z,48.72
2018-01-03T19:29:53.217Z,48.79
2018-01-03T19:30:52.567Z,48.84
2018-01-03T19:31:51.920Z,48.83
2018-01-03T19:32:51.288Z,48.88
2018-01-03T19:33:50.640Z,48.93
2018-01-03T19:34:49.995Z,48.94
2018-01-03T19:35:49.345Z,49.02
2018-01-03T19:36:48.709Z,49.00
2018-01-03T19:37:48.057Z,49.08
2018-01-03T19:38:47.451Z,49.05
2018-01-03T19:39:46.792Z,49.09
2018-01-03T19:40:46.149Z,49.08
2018-01-03T19:41:45.504Z,49.16
2018-01-03T19:42:44.849Z,49.19
2018-01-03T19:43:44.197Z,49.19
2018-01-03T19:44:43.588Z,49.18
2018-01-03T19:45:42.931Z,49.25
2018-01-03T19:46:42.308Z,49.31
2018-01-03T19:47:41.655Z,49.28
2018-01-03T19:48:41.016Z,49.32
2018-01-03T19:49:40.381Z,49.33
2018-01-03T19:50:39.768Z,49.32
2018-01-03T19:51:39.118Z,49.35
2018-01-03T19:52:38.469Z,49.40
2018-01-03T19:53:37.818Z,49.37
2018-01-03T19:54:37.170Z,49.37
2018-01-03T19:55:36.526Z,49.37
2018-01-03T19:56:35.919Z,49.38
2018-01-03T19:57:35.276Z,49.35
2018-01-03T19:58:34.619Z,49.36
2018-01-03T19:59:33.969Z,49.39
2018-01-03T20:00:33.319Z,49.49
2018-01-03T20:01:32.733Z,49.31
2018-01-03T20:02:32.150Z,49.31
2018-01-03T20:03:31.520Z,49.29
2018-01-03T20:04:30.873Z,49.32
2018-01-03T20:05:30.342Z,49.32
2018-01-03T20:06:29.699Z,49.38
2018-01-03T20:07:29.049Z,49.34
2018-01-03T20:08:28.429Z,49.37
2018-01-03T20:09:27.790Z,49.33
2018-01-03T20:10:27.149Z,49.39
2018-01-03T20:11:26.500Z,49.38
2018-01-03T20:12:25.878Z,49.40
2018-01-03T20:13:25.199Z,49.41
2018-01-03T20:14:24.568Z,49.42
2018-01-03T20:15:23.916Z,49.42
2018-01-03T20:16:23.280Z,49.41
2018-01-03T20:17:22.640Z,49.40
2018-01-03T20:18:21.986Z,49.42
2018-01-03T20:19:21.349Z,49.46
2018-01-03T20:20:20.728Z,49.47
2018-01-03T20:21:20.077Z,49.45
2018-01-03T20:22:19.447Z,49.48
2018-01-03T20:23:18.906Z,49.49
2018-01-03T20:24:18.267Z,49.47
2018-01-03T20:25:17.609Z,49.53
2018-01-03T20:26:16.978Z,49.54
2018-01-03T20:27:16.354Z,49.54
2018-01-03T20:28:15.728Z,49.53
2018-01-03T20:29:15.139Z,49.55
2018-01-03T20:30:14.485Z,49.56
2018-01-03T20:31:13.946Z,49.56
2018-01-03T20:32:13.411Z,49.56
2018-01-03T20:33:12.804Z,49.60
2018-01-03T20:34:12.154Z,49.58
2018-01-03T20:35:11.501Z,49.59
2018-01-03T20:36:10.859Z,49.58
2018-01-03T20:37:10.213Z,49.60
2018-01-03T20:38:09.663Z,49.60
2018-01-03T20:39:09.011Z,49.61
2018-01-03T20:40:08.369Z,49.58
2018-01-03T20:41:07.727Z,49.59
2018-01-03T20:42:07.087Z,49.63
2018-01-03T20:43:06.514Z,49.63
2018-01-03T20:44:05.850Z,49.61
2018-01-03T20:45:05.199Z,49.65
2018-01-03T20:46:04.557Z,49.48
2018-01-03T20:47:03.914Z,49.39
2018-01-03T20:48:03.269Z,49.40
2018-01-03T20:49:02.626Z,50.65
2018-01-03T20:50:02.019Z,49.32
2018-01-03T20:51:01.372Z,49.33
2018-01-03T20:52:00.718Z,49.32
2018-01-03T20:53:00.129Z,49.34
2018-01-03T20:53:59.472Z,49.37
2018-01-03T20:54:58.817Z,49.36
2018-01-03T20:55:58.208Z,49.66
2018-01-03T20:56:57.565Z,50.93
2018-01-03T20:57:56.920Z,55.40
2018-01-03T20:58:56.288Z,49.90
2018-01-03T20:59:55.651Z,49.43
2018-01-03T21:00:54.999Z,49.30
2018-01-03T21:01:54.369Z,49.45
2018-01-03T21:02:53.720Z,49.46
2018-01-03T21:03:53.094Z,49.53
2018-01-03T21:04:52.446Z,50.31
2018-01-03T21:05:51.802Z,49.38
2018-01-03T21:06:51.153Z,49.52
2018-01-03T21:07:50.635Z,49.39
2018-01-03T21:08:50.125Z,49.53
2018-01-03T21:09:49.485Z,49.50
2018-01-03T21:10:48.839Z,49.69
2018-01-03T21:11:48.193Z,49.70
2018-01-03T21:12:47.551Z,49.73
2018-01-03T21:13:46.924Z,49.81
2018-01-03T21:14:46.276Z,49.74
2018-01-03T21:15:45.622Z,49.75
2018-01-03T21:16:44.982Z,49.78
2018-01-03T21:17:44.335Z,49.78
2018-01-03T21:18:43.682Z,49.83
2018-01-03T21:19:43.066Z,49.83
2018-01-03T21:20:42.410Z,49.91
2018-01-03T21:21:41.753Z,49.81
2018-01-03T21:22:41.116Z,49.80
2018-01-03T21:23:40.468Z,49.88
2018-01-03T21:24:39.834Z,49.92
2018-01-03T21:25:39.214Z,49.92
2018-01-03T21:26:38.572Z,49.95
2018-01-03T21:27:37.916Z,49.95
2018-01-03T21:28:37.268Z,49.98
2018-01-03T21:29:36.658Z,49.96
2018-01-03T21:30:36.030Z,49.94
2018-01-03T21:31:35.408Z,49.86
2018-01-03T21:32:34.764Z,49.98
2018-01-03T21:33:34.105Z,49.97
2018-01-03T21:34:33.449Z,50.03
2018-01-03T21:35:32.803Z,50.04
2018-01-03T21:36:32.158Z,50.07
2018-01-03T21:37:31.514Z,50.06
2018-01-03T21:38:30.867Z,50.09
2018-01-03T21:39:30.225Z,50.07
2018-01-03T21:40:29.610Z,50.10
2018-01-03T21:41:29.011Z,50.10
2018-01-03T21:42:28.389Z,50.12
2018-01-03T21:43:27.760Z,50.11
2018-01-03T21:44:27.116Z,50.09
2018-01-03T21:45:26.459Z,50.10
2018-01-03T21:46:25.809Z,50.15
2018-01-03T21:47:25.158Z,50.15
2018-01-03T21:48:24.499Z,50.16
2018-01-03T21:49:23.928Z,50.13
2018-01-03T21:50:23.294Z,50.15
2018-01-03T21:51:22.661Z,50.14
2018-01-03T21:52:21.999Z,50.16
2018-01-03T21:53:21.349Z,50.11
2018-01-03T21:54:20.698Z,50.14
2018-01-03T21:55:20.130Z,50.16
2018-01-03T21:56:19.479Z,50.18
2018-01-03T21:57:18.833Z,50.11
2018-01-03T21:58:18.187Z,50.15
2018-01-03T21:59:17.535Z,50.19
2018-01-03T22:00:16.924Z,50.17
2018-01-03T22:01:16.411Z,50.18
2018-01-03T22:02:15.770Z,50.38
2018-01-03T22:03:15.127Z,50.47
2018-01-03T22:04:14.479Z,50.23
2018-01-03T22:05:13.834Z,50.35
2018-01-03T22:06:13.179Z,50.38
2018-01-03T22:07:12.538Z,50.42
2018-01-03T22:08:11.885Z,50.42
2018-01-03T22:09:11.226Z,50.47
2018-01-03T22:10:10.576Z,50.47
2018-01-03T22:11:09.918Z,50.45
2018-01-03T22:12:09.262Z,50.53
2018-01-03T22:13:08.643Z,50.55
2018-01-03T22:14:07.993Z,50.52
2018-01-03T22:15:07.336Z,50.51
2018-01-03T22:16:06.683Z,50.48
2018-01-03T22:17:06.029Z,50.50
2018-01-03T22:18:05.408Z,50.49
2018-01-03T22:19:04.774Z,50.49
2018-01-03T22:20:04.126Z,50.48
2018-01-03T22:21:03.480Z,50.50
2018-01-03T22:22:02.825Z,50.53
2018-01-03T22:23:02.202Z,50.57
2018-01-03T22:24:01.591Z,50.52
2018-01-03T22:25:00.957Z,50.49
2018-01-03T22:26:00.298Z,50.50
2018-01-03T22:26:59.648Z,50.49
2018-01-03T22:27:59.009Z,50.53
2018-01-03T22:28:58.348Z,50.60
2018-01-03T22:29:57.708Z,50.62
2018-01-03T22:30:57.118Z,50.59
2018-01-03T22:31:56.468Z,50.56
2018-01-03T22:32:55.814Z,50.57
2018-01-03T22:33:55.172Z,50.53
2018-01-03T22:34:54.521Z,50.59
2018-01-03T22:35:53.869Z,50.55
2018-01-03T22:36:53.240Z,50.54
2018-01-03T22:37:52.588Z,50.54
2018-01-03T22:38:51.938Z,50.57
2018-01-03T22:39:51.289Z,50.51
2018-01-03T22:40:50.638Z,50.56
2018-01-03T22:41:49.988Z,50.54
2018-01-03T22:42:49.360Z,50.51
2018-01-03T22:43:48.705Z,50.58
2018-01-03T22:44:48.059Z,50.60
2018-01-03T22:45:47.403Z,50.53
2018-01-03T22:46:46.754Z,50.52
2018-01-03T22:47:46.098Z,50.52
2018-01-03T22:48:45.467Z,50.54
2018-01-03T22:49:44.820Z,50.52
2018-01-03T22:50:44.167Z,50.53
2018-01-03T22:51:43.523Z,50.53
2018-01-03T22:52:42.868Z,50.54
2018-01-03T22:53:42.216Z,50.52
2018-01-03T22:54:41.580Z,50.50
2018-01-03T22:55:40.927Z,50.56
2018-01-03T22:56:40.273Z,50.52
2018-01-03T22:57:39.617Z,50.51
2018-01-03T22:58:38.975Z,50.48
2018-01-03T22:59:38.326Z,50.54
2018-01-03T23:00:37.696Z,50.52
2018-01-03T23:01:37.037Z,50.49
2018-01-03T23:02:36.396Z,50.49
2018-01-03T23:03:35.747Z,50.48
2018-01-03T23:04:35.087Z,50.49
2018-01-03T23:05:34.429Z,50.53
2018-01-03T23:06:33.798Z,50.53
2018-01-03T23:07:33.145Z,50.51
2018-01-03T23:08:32.494Z,50.53
2018-01-03T23:09:31.840Z,50.50
2018-01-03T23:10:31.189Z,50.50
2018-01-03T23:11:30.572Z,50.52
2018-01-03T23:12:29.939Z,50.44
2018-01-03T23:13:29.283Z,50.53
2018-01-03T23:14:28.639Z,50.47
2018-01-03T23:15:27.992Z,50.45
2018-01-03T23:16:27.334Z,50.45
2018-01-03T23:17:26.680Z,50.47
2018-01-03T23:18:26.113Z,50.49
2018-01-03T23:19:25.461Z,50.48
2018-01-03T23:20:24.804Z,50.50
2018-01-03T23:21:24.160Z,50.51
2018-01-03T23:22:23.527Z,50.48
2018-01-03T23:23:22.917Z,50.53
2018-01-03T23:24:22.290Z,50.49
2018-01-03T23:25:21.637Z,50.51
2018-01-03T23:26:20.986Z,50.57
2018-01-03T23:27:20.342Z,50.45
2018-01-03T23:28:19.690Z,50.48
2018-01-03T23:29:19.043Z,50.49
2018-01-03T23:30:18.405Z,50.49
2018-01-03T23:31:17.749Z,50.47
2018-01-03T23:32:17.098Z,50.50
2018-01-03T23:33:16.451Z,50.50
2018-01-03T23:34:15.797Z,50.55
2018-01-03T23:35:15.145Z,50.50
2018-01-03T23:36:14.519Z,50.51
2018-01-03T23:37:13.861Z,50.60
2018-01-03T23:38:13.215Z,50.50
2018-01-03T23:39:12.565Z,50.52
2018-01-03T23:40:11.940Z,50.53
2018-01-03T23:41:11.289Z,50.48
2018-01-03T23:42:10.660Z,50.60
2018-01-03T23:43:10.011Z,50.48
2018-01-03T23:44:09.359Z,50.53
2018-01-03T23:45:08.703Z,50.47
2018-01-03T23:46:08.060Z,50.50
2018-01-03T23:47:07.405Z,50.50
2018-01-03T23:48:06.786Z,50.46
2018-01-03T23:49:06.145Z,50.43
2018-01-03T23:50:05.492Z,50.54
2018-01-03T23:51:04.840Z,50.46
2018-01-03T23:52:04.190Z,50.43
2018-01-03T23:53:03.537Z,50.47
2018-01-03T23:54:02.911Z,50.45
2018-01-03T23:56:19.717Z,50.42
2018-01-03T23:57:19.056Z,50.42
2018-01-03T23:58:18.552Z,50.41
2018-01-03T23:59:18.028Z,50.45
